Mae Hong Son, Thailand
Current Conditions -  °F | °C
As of 8:30 PM on Tuesday 21 Oct 2014 (Local Time) from VTCC Reporting Station
Broken Clouds Broken Clouds  
Wind Chill: 79°   Ceiling: 4000
Heat Index: 81°   Visibility: 6mi
Dew Point: 70°   Wind: 5mph
Humidity: 74%   Direction: 210°SSW
Pressure: 30.03"   Gusts: NA
Location:  19.27°N, 97.93°E
Report Text: VTCC 211330Z 21004KT 9999 BKN040 26/21 Q1017 A3003 NOSIG
Loading
Personal Weather Stations






























Interactive Weather Map
Tropical Storm Tracking
New forecast layout! Learn more

10-Day Weather Forecast

Advertisements
Track Severe Weather on mobile